Homer, AK (99603)

2:00 PM AKST on December 02, 2016 (GMT -0900)
East Hill | | Change Station

Elev 597 ft 59.66 °N, 151.52 °W | Updated 1 minute ago

Overcast
Overcast
26.1 °F
Feels Like 26 °F
N
1.0
Wind Variable Wind from NNW
Gusts 2.0 mph

Today
High -- | Low -- °F
--% Chance of Precip.
Yesterday
High -- | Low -- °F
Precip. -- in
Pressure 29.32 in
Visibility 10.0 miles
Clouds Scattered Clouds 3000 ft
Overcast 3900 ft
Windchill 26 °F
Dew Point 23 °F
Humidity 87%
Rainfall 0.00 in
Snow Depth Not available.
9:41 AM 4:09 PM
Waxing Crescent, 11% visible
METAR PAHO 022253Z 31005KT 10SM SCT030 OVC039 M01/M06 A2932 RMK AO2 SLP929 VCSH T10061056
Pressure 29.32 in
Visibility 10.0 miles
Clouds Scattered Clouds 3000 ft
Overcast 3900 ft
Windchill 26 °F
Dew Point 23 °F
Humidity 87%
Rainfall 0.00 in
Snow Depth Not available.
9:41 AM 4:09 PM
Waxing Crescent, 11% visible
METAR PAHO 022253Z 31005KT 10SM SCT030 OVC039 M01/M06 A2932 RMK AO2 SLP929 VCSH T10061056

10-Day Weather Forecast

Almanac

Astronomy

Dec. 02, 2016 Rise Set
Actual Time
Civil Twilight
Nautical Twilight
Astronomical Twilight
Moon
Length of Visible Light
Length of Day
Tomorrow will be .
, % of the Moon is Illuminated

Today's Extremes

State Highs State Lows

Community

WunderPhotos

Upload Photos

1,955,368 photos uploaded!

WunderBlog® & News

Nearby

Air Quality

  Air Quality AQ Index Pollutant
Not available.

Snow Depth

Station Depth Elevation

Earthquake Activity

City Distance Mag. Time & Date
Minimum magnitude displayed is 2.5.

Coastal Water Temperatures

Place Temperature

Stations

Nearby Weather Stations

Station Location Temp. Windchill Dew Point Humidity Wind Precip. Elev Updated Type
                   

Watches & Warnings

There are currently no watches in effect.